createdAt,value
2018-03-04T00:00:17.156Z,1003.94
2018-03-04T00:01:17.171Z,1003.95
2018-03-04T00:02:17.159Z,1003.99
2018-03-04T00:03:17.174Z,1004
2018-03-04T00:04:17.154Z,1004.07
2018-03-04T00:05:17.162Z,1004.12
2018-03-04T00:06:17.186Z,1004.22
2018-03-04T00:07:17.163Z,1004.21
2018-03-04T00:08:17.178Z,1004.21
2018-03-04T00:09:17.185Z,1004.2
2018-03-04T00:10:17.186Z,1004.26
2018-03-04T00:11:17.201Z,1004.25
2018-03-04T00:12:17.181Z,1004.25
2018-03-04T00:13:17.180Z,1004.27
2018-03-04T00:14:17.190Z,1004.31
2018-03-04T00:15:17.179Z,1004.27
2018-03-04T00:16:17.188Z,1004.27
2018-03-04T00:17:17.213Z,1004.3
2018-03-04T00:18:17.208Z,1004.24
2018-03-04T00:19:17.191Z,1004.27
2018-03-04T00:20:17.205Z,1004.28
2018-03-04T00:21:17.192Z,1004.29
2018-03-04T00:22:17.234Z,1004.33
2018-03-04T00:23:17.207Z,1004.37
2018-03-04T00:24:17.233Z,1004.37
2018-03-04T00:25:17.205Z,1004.33
2018-03-04T00:26:17.212Z,1004.34
2018-03-04T00:27:17.239Z,1004.37
2018-03-04T00:28:17.216Z,1004.38
2018-03-04T00:29:17.227Z,1004.41
2018-03-04T00:31:23.426Z,1004.39
2018-03-04T00:32:17.226Z,1004.38
2018-03-04T00:33:17.246Z,1004.38
2018-03-04T00:34:17.219Z,1004.39
2018-03-04T00:35:17.222Z,1004.43
2018-03-04T00:36:17.233Z,1004.4
2018-03-04T00:37:17.232Z,1004.38
2018-03-04T00:38:17.271Z,1004.37
2018-03-04T00:39:17.254Z,1004.39
2018-03-04T00:41:23.495Z,1004.31
2018-03-04T00:42:17.254Z,1004.31
2018-03-04T00:43:17.237Z,1004.34
2018-03-04T00:44:17.248Z,1004.32
2018-03-04T00:45:17.254Z,1004.34
2018-03-04T00:46:17.247Z,1004.33
2018-03-04T00:47:17.247Z,1004.3
2018-03-04T00:48:17.254Z,1004.25
2018-03-04T00:49:17.280Z,1004.23
2018-03-04T00:50:17.277Z,1004.22
2018-03-04T00:51:17.268Z,1004.19
2018-03-04T00:52:17.537Z,1004.2
2018-03-04T00:53:17.279Z,1004.17
2018-03-04T00:54:17.285Z,1004.16
2018-03-04T00:55:17.285Z,1004.14
2018-03-04T00:56:17.282Z,1004.09
2018-03-04T00:57:17.308Z,1004.09
2018-03-04T00:58:17.290Z,1004.07
2018-03-04T00:59:17.286Z,1004.05
2018-03-04T01:00:17.293Z,1004.07
2018-03-04T01:01:17.294Z,1004.12
2018-03-04T01:02:17.320Z,1004.08
2018-03-04T01:03:17.305Z,1004.1
2018-03-04T01:04:17.308Z,1004.06
2018-03-04T01:05:17.316Z,1004.1
2018-03-04T01:06:17.312Z,1004.06
2018-03-04T01:07:17.315Z,1004.12
2018-03-04T01:08:17.325Z,1004.17
2018-03-04T01:09:17.315Z,1004.15
2018-03-04T01:10:17.316Z,1004.21
2018-03-04T01:11:17.328Z,1004.13
2018-03-04T01:12:17.329Z,1004.16
2018-03-04T01:13:17.603Z,1004.16
2018-03-04T01:14:17.337Z,1004.16
2018-03-04T01:15:17.346Z,1004.18
2018-03-04T01:16:17.349Z,1004.22
2018-03-04T01:17:17.347Z,1004.22
2018-03-04T01:18:17.367Z,1004.17
2018-03-04T01:20:23.586Z,1004.14
2018-03-04T01:21:17.361Z,1004.14
2018-03-04T01:22:17.362Z,1004.15
2018-03-04T01:23:17.372Z,1004.15
2018-03-04T01:24:17.362Z,1004.15
2018-03-04T01:25:17.362Z,1004.13
2018-03-04T01:26:17.371Z,1004.13
2018-03-04T01:27:17.374Z,1004.15
2018-03-04T01:28:17.367Z,1004.13
2018-03-04T01:29:17.388Z,1004.13
2018-03-04T01:30:17.389Z,1004.13
2018-03-04T01:31:17.389Z,1004.09
2018-03-04T01:32:17.382Z,1004.07
2018-03-04T01:33:17.388Z,1004.02
2018-03-04T01:34:17.410Z,1003.97
2018-03-04T01:35:17.384Z,1004.02
2018-03-04T01:36:17.385Z,1004.03
2018-03-04T01:37:17.392Z,1004.07
2018-03-04T01:38:17.389Z,1004.13
2018-03-04T01:39:17.412Z,1004.09
2018-03-04T01:40:17.399Z,1004.06
2018-03-04T01:41:17.409Z,1004.06
2018-03-04T01:42:17.403Z,1004.08
2018-03-04T01:43:17.406Z,1004.12
2018-03-04T01:44:17.422Z,1004.15
2018-03-04T01:45:17.424Z,1004.13
2018-03-04T01:46:17.438Z,1004.11
2018-03-04T01:47:17.420Z,1004.1
2018-03-04T01:48:17.428Z,1004.13
2018-03-04T01:49:17.438Z,1004.18
2018-03-04T01:50:17.440Z,1004.18
2018-03-04T01:51:17.465Z,1004.15
2018-03-04T01:52:17.463Z,1004.11
2018-03-04T01:53:17.443Z,1004.09
2018-03-04T01:54:17.445Z,1004.1
2018-03-04T01:55:17.506Z,1004.11
2018-03-04T01:56:17.463Z,1004.17
2018-03-04T01:57:17.775Z,1004.2
2018-03-04T01:58:17.473Z,1004.23
2018-03-04T01:59:17.605Z,1004.25
2018-03-04T02:00:17.472Z,1004.23
2018-03-04T02:01:17.475Z,1004.27
2018-03-04T02:02:17.506Z,1004.29
2018-03-04T02:03:17.488Z,1004.25
2018-03-04T02:04:17.522Z,1004.27
2018-03-04T02:05:17.484Z,1004.28
2018-03-04T02:06:17.485Z,1004.27
2018-03-04T02:07:17.508Z,1004.31
2018-03-04T02:08:17.490Z,1004.33
2018-03-04T02:09:17.491Z,1004.39
2018-03-04T02:10:17.497Z,1004.47
2018-03-04T02:11:17.498Z,1004.47
2018-03-04T02:12:17.499Z,1004.5
2018-03-04T02:13:17.523Z,1004.51
2018-03-04T02:14:17.508Z,1004.45
2018-03-04T02:15:17.519Z,1004.46
2018-03-04T02:16:17.532Z,1004.4
2018-03-04T02:18:25.737Z,1004.35
2018-03-04T02:19:17.509Z,1004.33
2018-03-04T02:20:17.513Z,1004.35
2018-03-04T02:21:17.520Z,1004.32
2018-03-04T02:22:17.513Z,1004.33
2018-03-04T02:23:17.528Z,1004.3
2018-03-04T02:24:17.527Z,1004.28
2018-03-04T02:25:17.516Z,1004.32
2018-03-04T02:26:17.512Z,1004.33
2018-03-04T02:27:17.514Z,1004.33
2018-03-04T02:28:17.518Z,1004.38
2018-03-04T02:29:17.524Z,1004.41
2018-03-04T02:30:17.537Z,1004.39
2018-03-04T02:31:17.526Z,1004.41
2018-03-04T02:32:17.536Z,1004.4
2018-03-04T02:33:17.532Z,1004.34
2018-03-04T02:34:17.540Z,1004.3
2018-03-04T02:35:17.538Z,1004.26
2018-03-04T02:36:17.577Z,1004.26
2018-03-04T02:37:17.535Z,1004.26
2018-03-04T02:38:17.543Z,1004.23
2018-03-04T02:39:17.549Z,1004.15
2018-03-04T02:40:17.825Z,1004.18
2018-03-04T02:41:17.555Z,1004.21
2018-03-04T02:42:17.563Z,1004.19
2018-03-04T02:43:17.573Z,1004.18
2018-03-04T02:44:17.555Z,1004.14
2018-03-04T02:45:17.594Z,1004.1
2018-03-04T02:46:17.598Z,1004.09
2018-03-04T02:47:17.561Z,1004.08
2018-03-04T02:48:17.571Z,1004.07
2018-03-04T02:49:17.588Z,1004.08
2018-03-04T02:50:17.571Z,1004.07
2018-03-04T02:51:17.606Z,1003.98
2018-03-04T02:52:17.587Z,1003.94
2018-03-04T02:53:17.588Z,1003.93
2018-03-04T02:54:17.584Z,1003.97
2018-03-04T02:55:17.589Z,1003.93
2018-03-04T02:56:17.592Z,1003.89
2018-03-04T02:57:17.578Z,1003.88
2018-03-04T02:58:17.588Z,1003.87
2018-03-04T02:59:17.582Z,1003.85
2018-03-04T03:00:17.591Z,1003.83
2018-03-04T03:01:17.621Z,1003.78
2018-03-04T03:02:17.608Z,1003.74
2018-03-04T03:03:17.617Z,1003.7
2018-03-04T03:04:17.609Z,1003.68
2018-03-04T03:05:17.612Z,1003.69
2018-03-04T03:07:23.820Z,1003.65
2018-03-04T03:08:17.633Z,1003.69
2018-03-04T03:09:17.640Z,1003.7
2018-03-04T03:10:17.644Z,1003.66
2018-03-04T03:11:17.638Z,1003.68
2018-03-04T03:12:17.657Z,1003.7
2018-03-04T03:13:17.664Z,1003.72
2018-03-04T03:14:17.667Z,1003.74
2018-03-04T03:15:17.658Z,1003.79
2018-03-04T03:17:23.818Z,1003.86
2018-03-04T03:18:17.655Z,1003.86
2018-03-04T03:19:17.650Z,1003.83
2018-03-04T03:20:17.663Z,1003.81
2018-03-04T03:21:17.721Z,1003.92
2018-03-04T03:22:17.671Z,1003.92
2018-03-04T03:23:17.677Z,1003.95
2018-03-04T03:24:17.681Z,1003.94
2018-03-04T03:25:17.687Z,1003.94
2018-03-04T03:26:17.713Z,1003.93
2018-03-04T03:27:17.695Z,1003.99
2018-03-04T03:28:17.693Z,1004.01
2018-03-04T03:29:17.691Z,1004.03
2018-03-04T03:30:17.706Z,1004.09
2018-03-04T03:31:17.730Z,1004.03
2018-03-04T03:32:17.695Z,1004.04
2018-03-04T03:33:17.720Z,1004.05
2018-03-04T03:34:17.703Z,1004.02
2018-03-04T03:36:38.514Z,1003.98
2018-03-04T03:37:17.709Z,1003.93
2018-03-04T03:38:17.713Z,1003.89
2018-03-04T03:39:17.716Z,1003.88
2018-03-04T03:40:17.723Z,1003.89
2018-03-04T03:41:17.729Z,1003.79
2018-03-04T03:42:17.728Z,1003.82
2018-03-04T03:43:17.737Z,1003.79
2018-03-04T03:44:17.736Z,1003.81
2018-03-04T03:45:17.745Z,1003.77
2018-03-04T03:46:17.754Z,1003.75
2018-03-04T03:47:18.322Z,1003.75
2018-03-04T03:48:17.768Z,1003.75
2018-03-04T03:49:17.752Z,1003.75
2018-03-04T03:50:17.763Z,1003.71
2018-03-04T03:51:17.756Z,1003.74
2018-03-04T03:52:17.754Z,1003.73
2018-03-04T03:53:17.769Z,1003.68
2018-03-04T03:54:17.766Z,1003.62
2018-03-04T03:55:17.794Z,1003.63
2018-03-04T03:56:17.780Z,1003.63
2018-03-04T03:57:17.804Z,1003.64
2018-03-04T03:58:17.789Z,1003.65
2018-03-04T03:59:17.788Z,1003.64
2018-03-04T04:00:17.781Z,1003.66
2018-03-04T04:01:17.782Z,1003.63
2018-03-04T04:02:17.910Z,1003.6
2018-03-04T04:03:17.812Z,1003.53
2018-03-04T04:04:18.957Z,1003.54
2018-03-04T04:05:20.592Z,1003.53
2018-03-04T04:06:19.280Z,1003.54
2018-03-04T04:07:18.272Z,1003.51
2018-03-04T04:08:18.237Z,1003.5
2018-03-04T04:09:21.900Z,1003.5
2018-03-04T04:10:19.403Z,1003.53
2018-03-04T04:11:18.246Z,1003.48
2018-03-04T04:12:23.262Z,1003.49
2018-03-04T04:13:17.843Z,1003.48
2018-03-04T04:14:17.848Z,1003.48
2018-03-04T04:15:18.129Z,1003.48
2018-03-04T04:16:17.868Z,1003.5
2018-03-04T04:17:17.860Z,1003.52
2018-03-04T04:18:17.854Z,1003.47
2018-03-04T04:19:17.847Z,1003.46
2018-03-04T04:20:17.868Z,1003.52
2018-03-04T04:21:17.857Z,1003.48
2018-03-04T04:22:17.878Z,1003.51
2018-03-04T04:23:17.868Z,1003.56
2018-03-04T04:24:17.896Z,1003.59
2018-03-04T04:25:17.883Z,1003.59
2018-03-04T04:26:17.880Z,1003.61
2018-03-04T04:27:17.887Z,1003.65
2018-03-04T04:28:17.910Z,1003.64
2018-03-04T04:29:17.896Z,1003.62
2018-03-04T04:30:17.885Z,1003.6
2018-03-04T04:31:17.888Z,1003.58
2018-03-04T04:32:17.884Z,1003.56
2018-03-04T04:33:17.888Z,1003.55
2018-03-04T04:34:17.896Z,1003.53
2018-03-04T04:35:17.902Z,1003.55
2018-03-04T04:36:17.924Z,1003.53
2018-03-04T04:37:17.906Z,1003.59
2018-03-04T04:38:17.905Z,1003.57
2018-03-04T04:39:17.919Z,1003.59
2018-03-04T04:41:24.441Z,1003.56
2018-03-04T04:42:17.924Z,1003.52
2018-03-04T04:43:17.924Z,1003.48
2018-03-04T04:44:17.938Z,1003.38
2018-03-04T04:45:18.046Z,1003.32
2018-03-04T04:46:17.959Z,1003.35
2018-03-04T04:47:17.958Z,1003.37
2018-03-04T04:48:17.938Z,1003.43
2018-03-04T04:49:17.939Z,1003.44
2018-03-04T04:51:24.216Z,1003.45
2018-03-04T04:52:17.995Z,1003.39
2018-03-04T04:53:17.970Z,1003.4
2018-03-04T04:54:17.983Z,1003.43
2018-03-04T04:55:17.976Z,1003.48
2018-03-04T04:56:18.003Z,1003.45
2018-03-04T04:57:18.297Z,1003.44
2018-03-04T04:58:18.094Z,1003.47
2018-03-04T04:59:18.002Z,1003.43
2018-03-04T05:00:18.006Z,1003.42
2018-03-04T05:01:18.009Z,1003.44
2018-03-04T05:02:18.046Z,1003.43
2018-03-04T05:03:18.010Z,1003.41
2018-03-04T05:04:18.019Z,1003.42
2018-03-04T05:05:18.019Z,1003.39
2018-03-04T05:06:18.015Z,1003.39
2018-03-04T05:07:18.052Z,1003.36
2018-03-04T05:08:18.032Z,1003.35
2018-03-04T05:09:18.041Z,1003.31
2018-03-04T05:10:18.035Z,1003.31
2018-03-04T05:11:18.053Z,1003.27
2018-03-04T05:12:18.067Z,1003.29
2018-03-04T05:13:18.052Z,1003.29
2018-03-04T05:14:18.050Z,1003.32
2018-03-04T05:15:18.050Z,1003.31
2018-03-04T05:16:18.052Z,1003.33
2018-03-04T05:17:18.049Z,1003.37
2018-03-04T05:18:18.089Z,1003.34
2018-03-04T05:19:18.069Z,1003.34
2018-03-04T05:20:18.052Z,1003.33
2018-03-04T05:21:18.074Z,1003.35
2018-03-04T05:22:18.071Z,1003.36
2018-03-04T05:23:18.073Z,1003.33
2018-03-04T05:24:18.076Z,1003.32
2018-03-04T05:25:18.085Z,1003.32
2018-03-04T05:26:18.079Z,1003.28
2018-03-04T05:27:18.083Z,1003.27
2018-03-04T05:28:18.104Z,1003.3
2018-03-04T05:29:18.080Z,1003.29
2018-03-04T05:30:18.091Z,1003.35
2018-03-04T05:31:18.094Z,1003.34
2018-03-04T05:32:18.088Z,1003.39
2018-03-04T05:33:18.091Z,1003.37
2018-03-04T05:34:18.092Z,1003.41
2018-03-04T05:35:18.096Z,1003.39
2018-03-04T05:36:18.108Z,1003.4
2018-03-04T05:37:18.108Z,1003.4
2018-03-04T05:38:18.118Z,1003.4
2018-03-04T05:39:18.109Z,1003.39
2018-03-04T05:40:18.114Z,1003.38
2018-03-04T05:41:18.115Z,1003.38
2018-03-04T05:42:18.122Z,1003.4
2018-03-04T05:43:18.159Z,1003.4
2018-03-04T05:44:18.128Z,1003.38
2018-03-04T05:45:18.132Z,1003.37
2018-03-04T05:46:18.136Z,1003.4
2018-03-04T05:47:18.134Z,1003.44
2018-03-04T05:48:18.143Z,1003.41
2018-03-04T05:49:18.148Z,1003.41
2018-03-04T05:50:18.143Z,1003.39
2018-03-04T05:51:18.194Z,1003.42
2018-03-04T05:52:18.156Z,1003.38
2018-03-04T05:53:18.166Z,1003.35
2018-03-04T05:54:18.170Z,1003.43
2018-03-04T05:55:18.172Z,1003.4
2018-03-04T05:56:18.184Z,1003.43
2018-03-04T05:57:18.185Z,1003.42
2018-03-04T06:00:18.268Z,1003.4
2018-03-04T06:01:18.177Z,1003.41
2018-03-04T06:02:18.220Z,1003.38
2018-03-04T06:03:18.275Z,1003.42
2018-03-04T06:04:18.191Z,1003.45
2018-03-04T06:05:18.199Z,1003.45
2018-03-04T06:06:18.191Z,1003.41
2018-03-04T06:07:18.200Z,1003.41
2018-03-04T06:08:18.262Z,1003.41
2018-03-04T06:09:18.213Z,1003.36
2018-03-04T06:10:18.218Z,1003.32
2018-03-04T06:11:18.200Z,1003.3
2018-03-04T06:12:18.233Z,1003.26
2018-03-04T06:13:18.210Z,1003.25
2018-03-04T06:14:18.221Z,1003.17
2018-03-04T06:15:18.219Z,1003.15
2018-03-04T06:16:18.220Z,1003.08
2018-03-04T06:17:18.217Z,1003.08
2018-03-04T06:18:18.235Z,1003.06
2018-03-04T06:19:18.238Z,1003.04
2018-03-04T06:20:18.241Z,1003.04
2018-03-04T06:21:18.232Z,1002.98
2018-03-04T06:22:18.265Z,1002.96
2018-03-04T06:23:18.260Z,1002.96
2018-03-04T06:24:18.264Z,1002.92
2018-03-04T06:25:18.284Z,1002.89
2018-03-04T06:26:18.267Z,1002.91
2018-03-04T06:27:18.276Z,1002.91
2018-03-04T06:28:18.294Z,1002.9
2018-03-04T06:29:18.252Z,1002.9
2018-03-04T06:30:18.258Z,1002.88
2018-03-04T06:31:18.258Z,1002.91
2018-03-04T06:32:18.271Z,1002.88
2018-03-04T06:33:18.254Z,1002.9
2018-03-04T06:34:18.260Z,1002.85
2018-03-04T06:35:18.260Z,1002.9
2018-03-04T06:36:18.298Z,1002.84
2018-03-04T06:37:18.263Z,1002.82
2018-03-04T06:38:18.278Z,1002.84
2018-03-04T06:39:18.343Z,1002.85
2018-03-04T06:40:18.287Z,1002.83
2018-03-04T06:41:18.337Z,1002.83
2018-03-04T06:42:18.300Z,1002.86
2018-03-04T06:43:18.363Z,1002.85
2018-03-04T06:44:18.315Z,1002.86
2018-03-04T06:45:18.292Z,1002.86
2018-03-04T06:46:18.305Z,1002.87
2018-03-04T06:47:18.302Z,1002.91
2018-03-04T06:48:18.313Z,1002.97
2018-03-04T06:49:18.313Z,1003.04
2018-03-04T06:50:18.602Z,1003.06
2018-03-04T06:51:18.377Z,1003.16
2018-03-04T06:52:18.328Z,1003.18
2018-03-04T06:53:18.344Z,1003.21
2018-03-04T06:54:18.369Z,1003.27
2018-03-04T06:55:18.409Z,1003.29
2018-03-04T06:56:18.363Z,1003.37
2018-03-04T06:57:19.007Z,1003.35
2018-03-04T06:58:18.367Z,1003.36
2018-03-04T06:59:18.521Z,1003.33
2018-03-04T07:00:18.371Z,1003.48
2018-03-04T07:01:18.367Z,1003.48
2018-03-04T07:02:18.370Z,1003.5
2018-03-04T07:03:18.365Z,1003.44
2018-03-04T07:04:18.389Z,1003.43
2018-03-04T07:05:18.374Z,1003.37
2018-03-04T07:06:18.371Z,1003.38
2018-03-04T07:07:18.396Z,1003.38
2018-03-04T07:08:18.376Z,1003.41
2018-03-04T07:09:18.417Z,1003.44
2018-03-04T07:10:18.425Z,1003.45
2018-03-04T07:11:18.401Z,1003.45
2018-03-04T07:12:18.405Z,1003.46
2018-03-04T07:13:18.407Z,1003.46
2018-03-04T07:14:18.669Z,1003.53
2018-03-04T07:15:18.427Z,1003.5
2018-03-04T07:16:18.424Z,1003.5
2018-03-04T07:17:18.410Z,1003.49
2018-03-04T07:18:18.410Z,1003.43
2018-03-04T07:19:18.431Z,1003.43
2018-03-04T07:20:18.427Z,1003.4
2018-03-04T07:21:18.438Z,1003.45
2018-03-04T07:22:18.444Z,1003.44
2018-03-04T07:23:18.481Z,1003.43
2018-03-04T07:24:18.472Z,1003.43
2018-03-04T07:25:18.459Z,1003.44
2018-03-04T07:26:18.427Z,1003.44
2018-03-04T07:27:18.427Z,1003.42
2018-03-04T07:28:18.437Z,1003.42
2018-03-04T07:29:18.456Z,1003.39
2018-03-04T07:30:18.460Z,1003.38
2018-03-04T07:31:18.447Z,1003.38
2018-03-04T07:32:18.446Z,1003.35
2018-03-04T07:33:18.519Z,1003.32
2018-03-04T07:34:18.449Z,1003.31
2018-03-04T07:35:18.458Z,1003.32
2018-03-04T07:36:18.450Z,1003.25
2018-03-04T07:37:18.444Z,1003.27
2018-03-04T07:38:18.458Z,1003.23
2018-03-04T07:39:18.526Z,1003.27
2018-03-04T07:40:18.546Z,1003.2
2018-03-04T07:41:18.471Z,1003.17
2018-03-04T07:42:18.477Z,1003.14
2018-03-04T07:43:18.482Z,1003.05
2018-03-04T07:44:18.500Z,1003.06
2018-03-04T07:46:24.753Z,1003.04
2018-03-04T07:47:18.592Z,1003.04
2018-03-04T07:48:18.479Z,1003.01
2018-03-04T07:49:18.536Z,1003.05
2018-03-04T07:50:18.494Z,1003.05
2018-03-04T07:51:18.502Z,1003.07
2018-03-04T07:52:18.505Z,1003.02
2018-03-04T07:53:18.507Z,1003.05
2018-03-04T07:54:18.501Z,1003
2018-03-04T07:55:18.508Z,1002.97
2018-03-04T07:56:18.514Z,1002.97
2018-03-04T07:57:18.507Z,1002.94
2018-03-04T07:58:18.509Z,1002.88
2018-03-04T07:59:18.520Z,1002.81
2018-03-04T08:00:18.515Z,1002.8
2018-03-04T08:01:18.555Z,1002.8
2018-03-04T08:02:18.577Z,1002.78
2018-03-04T08:03:18.554Z,1002.75
2018-03-04T08:04:18.575Z,1002.77
2018-03-04T08:05:18.538Z,1002.75
2018-03-04T08:06:18.540Z,1002.71
2018-03-04T08:07:18.546Z,1002.68
2018-03-04T08:08:18.550Z,1002.65
2018-03-04T08:09:18.555Z,1002.6
2018-03-04T08:10:18.586Z,1002.57
2018-03-04T08:11:18.588Z,1002.55
2018-03-04T08:12:18.543Z,1002.54
2018-03-04T08:13:18.579Z,1002.52
2018-03-04T08:14:18.718Z,1002.49
2018-03-04T08:15:18.669Z,1002.46
2018-03-04T08:16:18.596Z,1002.45
2018-03-04T08:17:18.573Z,1002.42
2018-03-04T08:18:18.570Z,1002.47
2018-03-04T08:19:18.564Z,1002.45
2018-03-04T08:20:18.569Z,1002.42
2018-03-04T08:21:18.594Z,1002.47
2018-03-04T08:22:18.574Z,1002.39
2018-03-04T08:23:18.590Z,1002.41
2018-03-04T08:24:19.690Z,1002.4
2018-03-04T08:25:18.592Z,1002.39
2018-03-04T08:26:18.596Z,1002.41
2018-03-04T08:27:18.603Z,1002.46
2018-03-04T08:28:18.767Z,1002.49
2018-03-04T08:29:18.613Z,1002.49
2018-03-04T08:30:18.602Z,1002.54
2018-03-04T08:31:18.604Z,1002.53
2018-03-04T08:32:18.615Z,1002.6
2018-03-04T08:33:18.610Z,1002.64
2018-03-04T08:34:18.602Z,1002.65
2018-03-04T08:35:18.632Z,1002.73
2018-03-04T08:36:18.618Z,1002.71
2018-03-04T08:37:18.609Z,1002.69
2018-03-04T08:38:18.616Z,1002.69
2018-03-04T08:39:18.629Z,1002.69
2018-03-04T08:40:18.629Z,1002.66
2018-03-04T08:41:18.636Z,1002.63
2018-03-04T08:42:18.633Z,1002.65
2018-03-04T08:43:18.637Z,1002.65
2018-03-04T08:44:19.052Z,1002.65
2018-03-04T08:45:18.639Z,1002.57
2018-03-04T08:46:18.632Z,1002.54
2018-03-04T08:47:18.632Z,1002.5
2018-03-04T08:48:18.652Z,1002.56
2018-03-04T08:49:18.660Z,1002.54
2018-03-04T08:50:18.678Z,1002.54
2018-03-04T08:51:18.673Z,1002.51
2018-03-04T08:52:18.659Z,1002.57
2018-03-04T08:53:18.660Z,1002.54
2018-03-04T08:54:18.681Z,1002.54
2018-03-04T08:55:18.668Z,1002.54
2018-03-04T08:56:18.673Z,1002.52
2018-03-04T08:57:18.663Z,1002.56
2018-03-04T08:58:18.665Z,1002.62
2018-03-04T08:59:18.665Z,1002.6
2018-03-04T09:00:18.662Z,1002.6
2018-03-04T09:01:18.673Z,1002.58
2018-03-04T09:02:18.714Z,1002.6
2018-03-04T09:03:18.696Z,1002.58
2018-03-04T09:04:18.682Z,1002.54
2018-03-04T09:05:18.678Z,1002.52
2018-03-04T09:06:18.766Z,1002.51
2018-03-04T09:07:18.686Z,1002.52
2018-03-04T09:08:19.520Z,1002.49
2018-03-04T09:09:18.947Z,1002.48
2018-03-04T09:10:18.683Z,1002.45
2018-03-04T09:11:18.689Z,1002.46
2018-03-04T09:14:18.802Z,1002.49
2018-03-04T09:15:18.700Z,1002.45
2018-03-04T09:16:18.702Z,1002.49
2018-03-04T09:17:18.721Z,1002.43
2018-03-04T09:18:18.789Z,1002.45
2018-03-04T09:19:18.720Z,1002.45
2018-03-04T09:20:18.725Z,1002.4
2018-03-04T09:21:18.723Z,1002.39
2018-03-04T09:22:18.735Z,1002.47
2018-03-04T09:23:18.748Z,1002.48
2018-03-04T09:24:18.745Z,1002.48
2018-03-04T09:25:18.753Z,1002.5
2018-03-04T09:26:18.740Z,1002.46
2018-03-04T09:27:18.751Z,1002.45
2018-03-04T09:28:18.756Z,1002.47
2018-03-04T09:29:18.748Z,1002.39
2018-03-04T09:30:18.755Z,1002.37
2018-03-04T09:31:18.798Z,1002.39
2018-03-04T09:32:18.770Z,1002.32
2018-03-04T09:33:18.779Z,1002.37
2018-03-04T09:34:18.783Z,1002.34
2018-03-04T09:35:18.778Z,1002.31
2018-03-04T09:36:18.778Z,1002.27
2018-03-04T09:37:18.779Z,1002.27
2018-03-04T09:38:18.786Z,1002.23
2018-03-04T09:39:18.791Z,1002.23
2018-03-04T09:40:18.814Z,1002.2
2018-03-04T09:41:18.823Z,1002.19
2018-03-04T09:42:18.809Z,1002.11
2018-03-04T09:43:18.813Z,1002.1
2018-03-04T09:44:18.807Z,1002.07
2018-03-04T09:45:18.834Z,1001.97
2018-03-04T09:46:18.810Z,1001.98
2018-03-04T09:47:18.822Z,1001.92
2018-03-04T09:48:18.825Z,1001.88
2018-03-04T09:49:18.823Z,1001.87
2018-03-04T09:50:18.844Z,1001.81
2018-03-04T09:51:18.828Z,1001.79
2018-03-04T09:52:18.837Z,1001.76
2018-03-04T09:53:18.841Z,1001.72
2018-03-04T09:54:18.852Z,1001.65
2018-03-04T09:55:18.898Z,1001.62
2018-03-04T09:56:18.845Z,1001.59
2018-03-04T09:57:18.851Z,1001.58
2018-03-04T09:58:18.879Z,1001.56
2018-03-04T09:59:18.932Z,1001.53
2018-03-04T10:00:18.867Z,1001.51
2018-03-04T10:01:18.873Z,1001.47
2018-03-04T10:02:18.861Z,1001.41
2018-03-04T10:03:18.889Z,1001.37
2018-03-04T10:04:18.884Z,1001.37
2018-03-04T10:05:18.875Z,1001.38
2018-03-04T10:06:18.975Z,1001.36
2018-03-04T10:07:18.902Z,1001.34
2018-03-04T10:08:18.902Z,1001.36
2018-03-04T10:09:18.879Z,1001.33
2018-03-04T10:10:18.898Z,1001.32
2018-03-04T10:11:18.894Z,1001.3
2018-03-04T10:12:18.897Z,1001.31
2018-03-04T10:13:18.908Z,1001.36
2018-03-04T10:14:18.893Z,1001.44
2018-03-04T10:15:18.921Z,1001.45
2018-03-04T10:16:18.897Z,1001.46
2018-03-04T10:17:18.903Z,1001.48
2018-03-04T10:18:18.905Z,1001.5
2018-03-04T10:19:18.925Z,1001.53
2018-03-04T10:20:18.915Z,1001.51
2018-03-04T10:21:18.923Z,1001.47
2018-03-04T10:22:18.925Z,1001.42
2018-03-04T10:23:18.936Z,1001.39
2018-03-04T10:24:18.934Z,1001.35
2018-03-04T10:25:18.994Z,1001.42
2018-03-04T10:26:18.958Z,1001.48
2018-03-04T10:27:18.952Z,1001.49
2018-03-04T10:28:18.954Z,1001.5
2018-03-04T10:29:19.962Z,1001.46
2018-03-04T10:30:18.963Z,1001.44
2018-03-04T10:31:18.978Z,1001.42
2018-03-04T10:32:18.976Z,1001.45
2018-03-04T10:33:18.982Z,1001.43
2018-03-04T10:34:19.290Z,1001.46
2018-03-04T10:35:21.587Z,1001.45
2018-03-04T10:36:19.175Z,1001.44
2018-03-04T10:37:18.992Z,1001.4
2018-03-04T10:38:19.007Z,1001.38
2018-03-04T10:39:19.004Z,1001.39
2018-03-04T10:40:19.019Z,1001.38
2018-03-04T10:41:18.999Z,1001.37
2018-03-04T10:42:19.006Z,1001.44
2018-03-04T10:43:19.012Z,1001.4
2018-03-04T10:44:19.025Z,1001.41
2018-03-04T10:45:19.422Z,1001.36
2018-03-04T10:46:19.142Z,1001.4
2018-03-04T10:47:19.020Z,1001.42
2018-03-04T10:48:19.037Z,1001.47
2018-03-04T10:49:19.026Z,1001.42
2018-03-04T10:50:19.314Z,1001.43
2018-03-04T10:51:19.025Z,1001.43
2018-03-04T10:52:19.034Z,1001.38
2018-03-04T10:53:19.032Z,1001.37
2018-03-04T10:54:19.049Z,1001.42
2018-03-04T10:55:19.082Z,1001.42
2018-03-04T10:56:19.055Z,1001.42
2018-03-04T10:57:19.084Z,1001.38
2018-03-04T10:58:19.064Z,1001.38
2018-03-04T10:59:19.057Z,1001.36
2018-03-04T11:00:19.621Z,1001.39
2018-03-04T11:01:19.080Z,1001.36
2018-03-04T11:02:19.382Z,1001.38
2018-03-04T11:03:19.068Z,1001.37
2018-03-04T11:04:19.097Z,1001.36
2018-03-04T11:05:19.085Z,1001.36
2018-03-04T11:06:19.090Z,1001.33
2018-03-04T11:07:19.119Z,1001.35
2018-03-04T11:08:19.105Z,1001.36
2018-03-04T11:09:19.090Z,1001.37
2018-03-04T11:10:19.093Z,1001.36
2018-03-04T11:11:19.097Z,1001.38
2018-03-04T11:12:19.118Z,1001.37
2018-03-04T11:13:19.101Z,1001.33
2018-03-04T11:14:19.108Z,1001.33
2018-03-04T11:15:19.256Z,1001.31
2018-03-04T11:16:19.428Z,1001.31
2018-03-04T11:17:19.114Z,1001.33
2018-03-04T11:18:19.121Z,1001.26
2018-03-04T11:19:19.119Z,1001.24
2018-03-04T11:20:19.136Z,1001.26
2018-03-04T11:21:19.168Z,1001.26
2018-03-04T11:22:19.132Z,1001.21
2018-03-04T11:23:19.129Z,1001.24
2018-03-04T11:24:19.147Z,1001.19
2018-03-04T11:25:19.158Z,1001.24
2018-03-04T11:26:19.138Z,1001.22
2018-03-04T11:27:19.159Z,1001.21
2018-03-04T11:28:19.148Z,1001.2
2018-03-04T11:29:19.153Z,1001.19
2018-03-04T11:30:19.143Z,1001.19
2018-03-04T11:31:19.156Z,1001.13
2018-03-04T11:32:19.255Z,1001.08
2018-03-04T11:33:19.156Z,1001.09
2018-03-04T11:34:19.175Z,1001.03
2018-03-04T11:35:19.176Z,1001.07
2018-03-04T11:36:19.168Z,1001.04
2018-03-04T11:37:19.174Z,1001
2018-03-04T11:38:19.185Z,1000.99
2018-03-04T11:39:19.299Z,1000.96
2018-03-04T11:40:19.789Z,1000.94
2018-03-04T11:41:19.188Z,1000.91
2018-03-04T11:42:19.294Z,1000.88
2018-03-04T11:43:19.192Z,1000.88
2018-03-04T11:44:19.196Z,1000.85
2018-03-04T11:45:19.214Z,1000.82
2018-03-04T11:46:19.240Z,1000.8
2018-03-04T11:47:19.285Z,1000.77
2018-03-04T11:48:19.242Z,1000.74
2018-03-04T11:49:19.247Z,1000.71
2018-03-04T11:50:19.225Z,1000.71
2018-03-04T11:51:19.262Z,1000.71
2018-03-04T11:52:19.228Z,1000.67
2018-03-04T11:53:19.236Z,1000.68
2018-03-04T11:54:19.234Z,1000.66
2018-03-04T11:55:19.300Z,1000.62
2018-03-04T11:56:19.297Z,1000.62
2018-03-04T11:57:19.310Z,1000.61
2018-03-04T11:58:19.309Z,1000.64
2018-03-04T11:59:19.242Z,1000.61
2018-03-04T12:00:19.338Z,1000.6
2018-03-04T12:01:19.242Z,1000.63
2018-03-04T12:02:19.295Z,1000.53
2018-03-04T12:03:19.286Z,1000.54
2018-03-04T12:04:19.253Z,1000.54
2018-03-04T12:05:19.272Z,1000.49
2018-03-04T12:06:19.277Z,1000.48
2018-03-04T12:07:19.287Z,1000.45
2018-03-04T12:08:19.279Z,1000.41
2018-03-04T12:09:19.274Z,1000.34
2018-03-04T12:10:19.275Z,1000.3
2018-03-04T12:11:19.277Z,1000.35
2018-03-04T12:12:19.293Z,1000.3
2018-03-04T12:13:19.316Z,1000.24
2018-03-04T12:14:19.292Z,1000.24
2018-03-04T12:15:19.297Z,1000.26
2018-03-04T12:16:19.304Z,1000.2
2018-03-04T12:17:19.305Z,1000.15
2018-03-04T12:18:19.322Z,1000.13
2018-03-04T12:19:19.380Z,1000.11
2018-03-04T12:20:19.380Z,1000.07
2018-03-04T12:21:19.349Z,1000.02
2018-03-04T12:22:19.347Z,1000.01